Time;durP1;ratioP1;P1;durP2;ratioP2;P2;SDS_P1;SDS_P2;PMS_P1;PMS_P2;Temp;Humidity;BMP_temperature;BMP_pressure;BME280_temperature;BME280_humidity;BME280_pressure;Samples;Min_cycle;Max_cycle;Signal;HPM_P1;HPM_P2
2022/05/12 00:00:24;;;;;;;;;3.67;3.67;;;;;21.59;47.62;101128.13;2085989;28;46754;-57
2022/05/12 00:01:25;;;;;;;;;4.75;3.50;;;;;21.59;47.82;101130.81;2086471;28;47736;-57
2022/05/12 00:02:25;;;;;;;;;2.33;2.33;;;;;21.58;47.69;101123.69;2087562;28;47943;-56
2022/05/12 00:03:26;;;;;;;;;4.33;4.00;;;;;21.56;47.77;101128.31;2090102;28;47739;-56
2022/05/12 00:04:27;;;;;;;;;5.67;4.33;;;;;21.55;47.30;101126.59;2085598;28;47848;-55
2022/05/12 00:05:28;;;;;;;;;3.25;2.25;;;;;21.55;47.64;101129.28;2090171;28;47920;-56
2022/05/12 00:06:28;;;;;;;;;3.00;3.00;;;;;21.54;47.22;101122.16;2087860;28;47724;-57
2022/05/12 00:07:29;;;;;;;;;2.33;2.33;;;;;21.53;47.22;101132.09;2087975;28;47399;-56
2022/05/12 00:08:29;;;;;;;;;4.00;3.33;;;;;21.53;48.14;101128.50;2085722;28;47538;-56
2022/05/12 00:09:30;;;;;;;;;3.50;3.00;;;;;21.52;48.06;101129.47;2087785;28;48082;-57
2022/05/12 00:10:31;;;;;;;;;3.00;3.00;;;;;21.53;48.01;101126.69;2084502;28;47756;-55
2022/05/12 00:11:31;;;;;;;;;6.25;6.25;;;;;21.53;47.38;101134.78;2103711;27;47853;-57
2022/05/12 00:12:31;;;;;;;;;5.25;5.00;;;;;21.53;47.89;101132.09;2100691;28;47707;-56
2022/05/12 00:13:32;;;;;;;;;4.00;4.00;;;;;21.53;48.05;101126.69;2089150;28;47695;-57
2022/05/12 00:14:33;;;;;;;;;3.75;3.25;;;;;21.52;48.13;101135.75;2087628;28;47644;-57
2022/05/12 00:15:36;;;;;;;;;3.75;3.00;;;;;21.51;47.95;101125.03;2087839;28;48251;-57
2022/05/12 00:16:37;;;;;;;;;3.25;3.25;;;;;21.51;47.30;101127.75;2086618;28;47800;-58
2022/05/12 00:17:37;;;;;;;;;2.00;2.00;;;;;21.50;48.06;101131.41;2089638;28;47975;-57
2022/05/12 00:18:38;;;;;;;;;2.00;2.00;;;;;21.49;47.43;101129.66;2088268;28;47342;-57
2022/05/12 00:19:38;;;;;;;;;3.00;2.00;;;;;21.49;48.04;101124.28;2090874;28;47370;-57
2022/05/12 00:20:41;;;;;;;;;2.67;2.67;;;;;21.49;47.87;101137.78;2087005;28;47784;-57
2022/05/12 00:21:43;;;;;;;;;5.25;3.00;;;;;21.48;48.08;101128.81;2091394;28;47813;-57
2022/05/12 00:22:44;;;;;;;;;4.50;2.75;;;;;21.47;47.81;101134.28;2090193;28;47519;-57
2022/05/12 00:23:56;;;;;;;;;3.00;3.00;;;;;21.46;47.58;101138.81;2088469;28;46373;-57
2022/05/12 00:24:56;;;;;;;;;4.25;3.00;;;;;21.43;47.86;101137.16;2088963;28;48164;-58
2022/05/12 00:25:57;;;;;;;;;2.50;1.00;;;;;21.42;47.83;101145.34;2089491;28;47377;-57
2022/05/12 00:26:57;;;;;;;;;3.00;3.00;;;;;21.41;47.77;101144.50;2088438;28;47300;-57
2022/05/12 00:27:58;;;;;;;;;1.50;1.50;;;;;21.41;47.76;101141.78;2090120;28;48013;-54
2022/05/12 00:29:06;;;;;;;;;5.00;3.33;;;;;21.40;48.09;101145.47;2089442;28;47616;-55
2022/05/12 00:30:09;;;;;;;;;5.25;4.00;;;;;21.38;47.74;101136.59;2087700;28;47588;-55
2022/05/12 00:31:09;;;;;;;;;7.20;4.80;;;;;21.37;47.94;101148.34;2091688;28;48337;-55
2022/05/12 00:32:10;;;;;;;;;3.00;3.00;;;;;21.37;47.73;101147.47;2086365;28;47698;-55
2022/05/12 00:33:12;;;;;;;;;2.33;2.00;;;;;21.35;47.85;101141.31;2088825;28;45900;-55
2022/05/12 00:34:15;;;;;;;;;3.00;3.00;;;;;21.35;47.71;101149.41;2087895;28;48144;-54
2022/05/12 00:35:16;;;;;;;;;3.25;3.25;;;;;21.34;48.15;101150.34;2088541;28;48115;-54
2022/05/12 00:36:17;;;;;;;;;3.00;3.00;;;;;21.33;47.82;101144.06;2083581;28;48157;-55
2022/05/12 00:37:18;;;;;;;;;4.00;4.00;;;;;21.34;48.54;101150.34;2091365;28;47486;-53
2022/05/12 00:38:18;;;;;;;;;5.00;3.67;;;;;21.33;48.17;101152.16;2086125;28;47909;-56
2022/05/12 00:39:18;;;;;;;;;5.33;5.33;;;;;21.34;48.26;101150.34;2091605;28;47317;-55
2022/05/12 00:40:19;;;;;;;;;5.25;5.25;;;;;21.34;48.17;101153.94;2088312;28;47650;-55
2022/05/12 00:41:19;;;;;;;;;6.00;4.00;;;;;21.34;47.71;101148.53;2089754;28;47705;-56
2022/05/12 00:42:20;;;;;;;;;5.67;5.67;;;;;21.34;48.22;101153.94;2087769;28;47502;-56
2022/05/12 00:43:45;;;;;;;;;3.75;3.00;;;;;21.33;48.44;101154.00;2088527;28;47864;-55
2022/05/12 00:44:45;;;;;;;;;4.40;4.00;;;;;21.31;47.99;101158.63;2086704;28;48642;-55
2022/05/12 00:45:46;;;;;;;;;4.67;4.00;;;;;21.29;48.24;101157.84;2091311;28;47652;-55
2022/05/12 00:46:50;;;;;;;;;5.00;2.75;;;;;21.28;48.11;101162.38;2089177;28;48226;-55
2022/05/12 00:47:50;;;;;;;;;5.75;4.25;;;;;21.28;47.99;101164.22;2087902;28;48032;-56
2022/05/12 00:48:53;;;;;;;;;4.33;4.33;;;;;21.27;48.16;101166.03;2089528;28;47521;-57
2022/05/12 00:49:54;;;;;;;;;4.20;4.20;;;;;21.27;47.77;101167.88;2087326;28;47680;-56
2022/05/12 00:50:55;;;;;;;;;4.75;3.25;;;;;21.25;48.07;101162.56;2087970;28;47512;-55
2022/05/12 00:52:08;;;;;;;;;4.25;4.00;;;;;21.25;48.36;101172.47;2087891;28;47267;-56
2022/05/12 00:53:11;;;;;;;;;3.25;2.50;;;;;21.25;48.48;101175.16;2079872;28;47639;-56
2022/05/12 00:54:19;;;;;;;;;5.00;4.50;;;;;21.23;48.44;101169.88;2088118;28;47899;-54
2022/05/12 00:55:27;;;;;;;;;3.40;3.40;;;;;21.22;48.33;101172.66;2091117;28;47811;-56
2022/05/12 00:56:28;;;;;;;;;4.00;4.00;;;;;21.21;48.50;101174.44;2085535;28;48065;-56
2022/05/12 00:57:37;;;;;;;;;3.25;3.25;;;;;21.21;48.49;101177.16;2090995;28;48108;-56
2022/05/12 00:58:38;;;;;;;;;5.00;5.00;;;;;21.21;48.19;101177.16;2089558;28;47702;-54
2022/05/12 00:59:38;;;;;;;;;6.60;5.60;;;;;21.22;48.10;101180.75;2088560;28;48034;-56
2022/05/12 01:00:40;;;;;;;;;2.00;2.00;;;;;21.21;48.57;101181.69;2085570;28;47528;-55
2022/05/12 01:01:40;;;;;;;;;4.60;3.20;;;;;21.21;47.89;101177.16;2104670;28;47438;-57
2022/05/12 01:02:44;;;;;;;;;3.25;3.00;;;;;21.20;48.21;101178.13;2101606;27;47614;-56
2022/05/12 01:03:47;;;;;;;;;3.40;3.40;;;;;21.21;48.03;101182.56;2091186;28;47946;-55
2022/05/12 01:04:48;;;;;;;;;4.60;4.60;;;;;21.21;48.48;101178.97;2087892;28;47783;-56
2022/05/12 01:05:49;;;;;;;;;4.80;4.80;;;;;21.21;48.53;101179.84;2089354;28;48010;-55
2022/05/12 01:06:51;;;;;;;;;5.80;3.00;;;;;21.22;48.30;101186.16;2089133;28;47578;-56
2022/05/12 01:07:55;;;;;;;;;7.40;5.20;;;;;21.22;48.23;101178.94;2087673;28;48108;-55
2022/05/12 01:08:56;;;;;;;;;3.20;3.20;;;;;21.22;48.42;101187.03;2087197;28;47529;-56
2022/05/12 01:09:56;;;;;;;;;5.25;4.50;;;;;21.23;48.54;101190.59;2089312;28;48106;-56
2022/05/12 01:11:03;;;;;;;;;2.50;2.50;;;;;21.22;48.30;101184.31;2079934;28;47992;-56
2022/05/12 01:12:04;;;;;;;;;6.00;5.40;;;;;21.22;48.26;101186.16;2088347;28;47541;-56
2022/05/12 01:13:05;;;;;;;;;4.80;3.80;;;;;21.21;48.45;101187.94;2090737;28;47702;-56
2022/05/12 01:14:07;;;;;;;;;4.75;3.25;;;;;21.21;48.42;101196.03;2086588;28;47932;-56
2022/05/12 01:15:09;;;;;;;;;6.00;4.00;;;;;21.21;48.43;101190.66;2090710;28;47588;-55
2022/05/12 01:16:09;;;;;;;;;4.60;3.20;;;;;21.21;47.68;101192.47;2086689;28;47706;-55
2022/05/12 01:17:12;;;;;;;;;4.00;3.00;;;;;21.20;47.88;101191.63;2087840;28;47246;-56
2022/05/12 01:18:17;;;;;;;;;4.60;4.60;;;;;21.18;47.84;101188.13;2088742;28;47728;-56
2022/05/12 01:19:21;;;;;;;;;4.60;4.60;;;;;21.19;48.12;101192.56;2089464;28;48039;-54
2022/05/12 01:20:24;;;;;;;;;4.00;4.00;;;;;21.18;47.71;101188.13;2086822;28;47951;-56
2022/05/12 01:21:24;;;;;;;;;3.00;3.00;;;;;21.16;47.53;101185.53;2090901;28;47591;-56
2022/05/12 01:22:32;;;;;;;;;3.50;3.50;;;;;21.15;48.21;101191.91;2087118;28;45649;-55
2022/05/12 01:23:36;;;;;;;;;3.40;3.20;;;;;21.14;47.89;101186.59;2089216;28;47525;-57
2022/05/12 01:24:42;;;;;;;;;4.20;4.20;;;;;21.15;48.09;101194.59;2086407;28;47846;-54
2022/05/12 01:25:43;;;;;;;;;5.60;5.60;;;;;21.15;47.75;101185.63;2089400;28;46605;-56
2022/05/12 01:26:43;;;;;;;;;3.00;3.00;;;;;21.15;47.73;101186.50;2087321;28;47614;-55
2022/05/12 01:27:44;;;;;;;;;4.75;4.75;;;;;21.15;48.07;101193.72;2090824;28;47235;-56
2022/05/12 01:28:44;;;;;;;;;6.25;4.50;;;;;21.12;47.51;101192.06;2083896;28;48163;-56
2022/05/12 01:29:48;;;;;;;;;9.00;6.00;;;;;21.11;47.61;101189.47;2087242;28;47535;-57
2022/05/12 01:30:48;;;;;;;;;3.00;3.00;;;;;21.10;47.79;101188.59;2086131;28;47492;-57
2022/05/12 01:31:49;;;;;;;;;8.00;6.25;;;;;21.08;48.11;101195.03;2088196;28;47561;-56
2022/05/12 01:32:50;;;;;;;;;6.00;6.00;;;;;21.06;48.22;101196.94;2081359;28;47415;-56
2022/05/12 01:33:51;;;;;;;;;2.80;2.80;;;;;21.05;48.08;101198.78;2080389;28;48056;-56
2022/05/12 01:34:52;;;;;;;;;3.00;3.00;;;;;21.05;47.84;101197.91;2088898;28;46924;-57
2022/05/12 01:35:53;;;;;;;;;6.00;6.00;;;;;21.03;48.37;101195.31;2090730;28;47954;-54
2022/05/12 01:36:53;;;;;;;;;5.75;5.00;;;;;21.03;47.86;101200.69;2088441;28;47421;-55
2022/05/12 01:37:54;;;;;;;;;9.25;6.75;;;;;21.03;47.99;101199.81;2090761;28;47653;-56
2022/05/12 01:38:54;;;;;;;;;9.00;7.00;;;;;21.02;48.21;101201.66;2090640;28;48319;-56
2022/05/12 01:39:55;;;;;;;;;6.75;6.75;;;;;21.02;47.77;101208.88;2088148;28;47613;-57
2022/05/12 01:40:55;;;;;;;;;4.75;4.00;;;;;21.00;48.06;101191.91;2087954;28;47367;-57
2022/05/12 01:41:56;;;;;;;;;4.75;4.75;;;;;20.98;48.17;101194.72;2089820;28;48008;-56
2022/05/12 01:42:56;;;;;;;;;7.00;7.00;;;;;20.99;48.12;101199.16;2088815;28;47720;-55
2022/05/12 01:43:57;;;;;;;;;5.50;5.25;;;;;20.97;48.26;101190.28;2089229;28;47104;-55
2022/05/12 01:44:58;;;;;;;;;5.00;5.00;;;;;20.95;47.83;101194.84;2087950;28;47563;-57
2022/05/12 01:46:00;;;;;;;;;5.00;5.00;;;;;20.95;47.67;101202.09;2090143;28;48072;-53
2022/05/12 01:47:00;;;;;;;;;4.80;4.80;;;;;20.92;48.11;101197.75;2090142;28;47431;-55
2022/05/12 01:48:01;;;;;;;;;5.25;5.25;;;;;20.91;48.27;101203.22;2087874;28;47665;-56
2022/05/12 01:49:01;;;;;;;;;8.50;7.00;;;;;20.90;48.01;101209.59;2087144;28;47673;-54
2022/05/12 01:50:03;;;;;;;;;3.50;3.50;;;;;20.89;47.95;101202.44;2088048;28;47595;-56
2022/05/12 01:51:05;;;;;;;;;5.00;5.00;;;;;20.86;48.28;101214.28;2090459;28;47290;-56
2022/05/12 01:52:06;;;;;;;;;4.20;4.20;;;;;20.83;48.34;101212.66;2090923;28;47811;-56
2022/05/12 01:53:09;;;;;;;;;4.40;4.40;;;;;20.82;48.41;101218.09;2088024;28;47666;-57
2022/05/12 01:54:09;;;;;;;;;6.20;5.00;;;;;20.78;48.11;101214.72;2090553;28;47664;-56
2022/05/12 01:55:11;;;;;;;;;4.25;4.25;;;;;20.78;48.76;101219.22;2090254;28;46438;-57
2022/05/12 01:56:13;;;;;;;;;5.60;4.80;;;;;20.77;48.17;101221.06;2088359;28;46906;-56
2022/05/12 01:57:14;;;;;;;;;6.40;6.00;;;;;20.76;48.08;101218.47;2090669;28;47579;-57
2022/05/12 01:58:19;;;;;;;;;7.75;6.25;;;;;20.74;48.05;101220.38;2088942;28;47408;-57
2022/05/12 01:59:21;;;;;;;;;6.60;6.60;;;;;20.72;48.76;101215.06;2088200;28;47704;-57
2022/05/12 02:00:26;;;;;;;;;8.20;6.80;;;;;20.72;48.35;101225.84;2090039;28;47910;-56
2022/05/12 02:01:27;;;;;;;;;7.80;7.20;;;;;20.72;48.74;101225.84;2088143;28;47729;-57
2022/05/12 02:02:28;;;;;;;;;4.75;4.75;;;;;20.74;48.88;101220.38;2088254;28;47473;-57
2022/05/12 02:03:28;;;;;;;;;7.25;6.25;;;;;20.74;48.56;101228.47;2089447;28;47936;-57
2022/05/12 02:04:29;;;;;;;;;6.25;5.50;;;;;20.75;48.67;101228.38;2087590;28;47291;-56
2022/05/12 02:05:34;;;;;;;;;4.00;4.00;;;;;20.75;48.37;101231.06;2095559;28;47572;-56
2022/05/12 02:06:35;;;;;;;;;5.00;5.00;;;;;20.75;48.75;101231.06;2095392;28;47674;-56
2022/05/12 02:07:41;;;;;;;;;7.00;5.75;;;;;20.73;48.71;101241.09;2087319;28;47594;-57
2022/05/12 02:08:42;;;;;;;;;7.60;6.00;;;;;20.71;48.38;101226.81;2089786;28;47774;-58
2022/05/12 02:09:42;;;;;;;;;4.50;4.00;;;;;20.71;48.59;101234.00;2089906;28;47076;-57
2022/05/12 02:10:47;;;;;;;;;6.00;6.00;;;;;20.70;48.87;101235.84;2087901;28;47956;-56
2022/05/12 02:11:48;;;;;;;;;7.00;3.60;;;;;20.69;48.44;101242.19;2089999;28;47985;-56
2022/05/12 02:12:48;;;;;;;;;6.00;6.00;;;;;20.69;48.66;101230.53;2087838;28;47677;-57
2022/05/12 02:13:49;;;;;;;;;4.75;4.75;;;;;20.69;48.16;101235.91;2087828;28;47775;-57
2022/05/12 02:14:49;;;;;;;;;4.00;4.00;;;;;20.68;48.17;101237.75;2090053;28;47599;-57
2022/05/12 02:15:50;;;;;;;;;3.50;3.50;;;;;20.69;48.24;101239.50;2087713;28;48072;-57
2022/05/12 02:16:50;;;;;;;;;6.25;4.75;;;;;20.69;48.16;101242.19;2087874;28;47448;-58
2022/05/12 02:17:51;;;;;;;;;4.00;4.00;;;;;20.69;48.25;101244.00;2084665;28;47875;-57
2022/05/12 02:18:54;;;;;;;;;7.00;7.00;;;;;20.68;48.19;101243.16;2087953;28;47532;-56
2022/05/12 02:19:55;;;;;;;;;4.20;4.20;;;;;20.67;48.13;101246.81;2090160;28;47330;-57
2022/05/12 02:20:57;;;;;;;;;8.50;6.50;;;;;20.69;48.08;101246.72;2087858;28;48135;-57
2022/05/12 02:22:00;;;;;;;;;6.00;5.80;;;;;20.67;48.32;101243.22;2088706;28;48291;-57
2022/05/12 02:23:01;;;;;;;;;4.00;4.00;;;;;20.65;48.33;101250.53;2089968;28;47626;-56
2022/05/12 02:24:01;;;;;;;;;6.33;4.33;;;;;20.64;48.10;101246.97;2087864;28;47764;-55
2022/05/12 02:25:03;;;;;;;;;6.33;6.33;;;;;20.61;47.38;101249.84;2089724;28;47706;-57
2022/05/12 02:26:04;;;;;;;;;5.20;4.60;;;;;20.59;47.25;101246.38;2090215;28;47607;-57
2022/05/12 02:27:04;;;;;;;;;2.75;2.75;;;;;20.58;47.68;101241.91;2087979;28;47977;-57
2022/05/12 02:28:05;;;;;;;;;3.00;3.00;;;;;20.55;47.51;101253.75;2090297;28;47482;-57
2022/05/12 02:29:05;;;;;;;;;3.33;3.33;;;;;20.53;47.16;101250.25;2090493;28;47972;-57
2022/05/12 02:30:06;;;;;;;;;2.00;2.00;;;;;20.54;47.00;101256.53;2087661;28;46535;-57
2022/05/12 02:31:07;;;;;;;;;4.00;4.00;;;;;20.53;47.26;101244.88;2088602;28;48048;-57
2022/05/12 02:32:08;;;;;;;;;5.00;3.00;;;;;20.53;47.25;101252.97;2088543;28;48088;-55
2022/05/12 02:33:09;;;;;;;;;4.67;3.33;;;;;20.52;46.77;101253.91;2089083;28;47866;-57
2022/05/12 02:34:10;;;;;;;;;2.00;2.00;;;;;20.51;47.07;101257.56;2090364;28;46404;-57
2022/05/12 02:35:11;;;;;;;;;3.75;3.75;;;;;20.52;47.09;101261.13;2086048;28;47431;-57
2022/05/12 02:36:12;;;;;;;;;3.40;3.20;;;;;20.49;47.38;101262.19;2089220;28;47775;-57
2022/05/12 02:37:12;;;;;;;;;3.00;2.00;;;;;20.48;46.91;101271.22;2090424;28;47410;-57
2022/05/12 02:38:13;;;;;;;;;3.67;3.67;;;;;20.45;47.10;101262.41;2087122;28;47930;-57
2022/05/12 02:39:13;;;;;;;;;3.33;3.33;;;;;20.45;47.34;101268.66;2089998;28;47721;-56
2022/05/12 02:40:18;;;;;;;;;3.00;3.00;;;;;20.46;47.49;101272.25;2088825;28;47534;-57
2022/05/12 02:41:18;;;;;;;;;3.50;2.75;;;;;20.43;46.80;101270.56;2088201;28;47512;-57
2022/05/12 02:42:19;;;;;;;;;3.00;2.00;;;;;20.44;47.17;101276.84;2090341;28;47322;-57
2022/05/12 02:43:25;;;;;;;;;3.00;2.00;;;;;20.43;46.63;101275.97;2088187;28;47886;-56
2022/05/12 02:44:25;;;;;;;;;5.00;3.25;;;;;20.42;46.79;101282.31;2087455;28;47712;-56
2022/05/12 02:45:28;;;;;;;;;2.00;2.00;;;;;20.41;46.89;101280.53;2090572;28;47851;-55
2022/05/12 02:46:28;;;;;;;;;3.50;3.50;;;;;20.40;46.73;101272.53;2087387;28;47672;-55
2022/05/12 02:47:29;;;;;;;;;1.67;1.67;;;;;20.38;46.15;101279.84;2090117;28;47886;-56
2022/05/12 02:48:34;;;;;;;;;1.00;1.00;;;;;20.36;46.38;101276.38;2087674;28;47295;-55
2022/05/12 02:49:36;;;;;;;;;2.50;2.50;;;;;20.32;46.14;101281.03;2087262;28;47847;-56
2022/05/12 02:50:36;;;;;;;;;4.25;2.50;;;;;20.29;46.08;101281.19;2090270;28;47593;-55
2022/05/12 02:51:36;;;;;;;;;3.00;3.00;;;;;20.27;46.39;101280.41;2087483;28;47821;-56
2022/05/12 02:52:37;;;;;;;;;4.00;4.00;;;;;20.26;46.52;101284.94;2087515;28;47987;-55
2022/05/12 02:53:38;;;;;;;;;3.67;3.67;;;;;20.26;46.16;101276.84;2088535;28;48091;-57
2022/05/12 02:54:39;;;;;;;;;2.25;1.75;;;;;20.27;45.75;101283.97;2086398;28;47938;-57
2022/05/12 02:55:39;;;;;;;;;2.33;1.67;;;;;20.28;46.16;101280.31;2090169;28;47479;-57
2022/05/12 02:56:40;;;;;;;;;3.00;3.00;;;;;20.28;45.80;101285.72;2087842;28;47415;-57
2022/05/12 02:57:41;;;;;;;;;2.67;2.67;;;;;20.28;46.15;101290.25;2089474;28;47718;-57
2022/05/12 02:58:42;;;;;;;;;1.40;1.40;;;;;20.27;45.77;101283.97;2086863;28;47525;-57
2022/05/12 02:59:42;;;;;;;;;1.25;1.25;;;;;20.29;46.21;101283.91;2087673;28;47254;-57
2022/05/12 03:00:43;;;;;;;;;5.00;3.00;;;;;20.29;45.99;101284.75;2090214;28;47800;-57
2022/05/12 03:01:44;;;;;;;;;2.75;1.75;;;;;20.30;46.26;101280.25;2090079;28;47558;-57
2022/05/12 03:02:44;;;;;;;;;5.00;3.25;;;;;20.31;45.81;101283.81;2087540;28;47880;-58
2022/05/12 03:03:45;;;;;;;;;2.33;2.33;;;;;20.31;45.73;101279.28;2086463;28;50616;-56
2022/05/12 03:04:46;;;;;;;;;4.00;2.25;;;;;20.31;45.71;101284.69;2087532;28;47775;-57
2022/05/12 03:05:46;;;;;;;;;2.00;1.00;;;;;20.32;45.71;101289.13;2087933;28;47884;-57
2022/05/12 03:06:47;;;;;;;;;1.25;1.25;;;;;20.32;45.91;101288.25;2089395;28;47440;-57
2022/05/12 03:07:47;;;;;;;;;2.00;2.00;;;;;20.31;45.57;101287.38;2086752;28;47603;-57
2022/05/12 03:08:48;;;;;;;;;5.00;4.00;;;;;20.29;45.89;101294.69;2089302;28;47658;-55
2022/05/12 03:09:48;;;;;;;;;2.75;2.75;;;;;20.27;45.93;101297.47;2089705;28;47480;-57
2022/05/12 03:10:51;;;;;;;;;2.25;2.25;;;;;20.27;45.82;101300.16;2086775;28;48075;-56
2022/05/12 03:11:52;;;;;;;;;2.25;1.50;;;;;20.27;46.06;101297.47;2089555;28;47594;-57
2022/05/12 03:12:52;;;;;;;;;2.67;1.00;;;;;20.28;46.04;101304.59;2088378;28;47370;-57
2022/05/12 03:13:53;;;;;;;;;1.67;1.67;;;;;20.27;46.34;101294.75;2087594;28;47593;-57
2022/05/12 03:14:54;;;;;;;;;2.00;2.00;;;;;20.27;45.87;101302.84;2089266;28;48072;-57
2022/05/12 03:15:54;;;;;;;;;2.00;2.00;;;;;20.26;46.29;101295.72;2086777;28;47928;-57
2022/05/12 03:16:55;;;;;;;;;3.00;1.33;;;;;20.25;46.14;101298.50;2088715;28;47492;-56
2022/05/12 03:17:56;;;;;;;;;2.33;1.00;;;;;20.24;45.95;101302.16;2089181;28;47390;-57
2022/05/12 03:18:57;;;;;;;;;2.40;2.00;;;;;20.24;46.27;101311.09;2086569;28;47550;-57
2022/05/12 03:19:58;;;;;;;;;1.50;1.00;;;;;20.23;45.86;101311.19;2088642;28;47852;-57
2022/05/12 03:20:59;;;;;;;;;3.00;3.00;;;;;20.21;46.27;101303.19;2087810;28;47835;-57
2022/05/12 03:22:00;;;;;;;;;2.00;2.00;;;;;20.21;46.17;101300.50;2087345;28;47861;-57
2022/05/12 03:23:00;;;;;;;;;7.00;3.00;;;;;20.22;45.97;101304.06;2089395;28;47692;-57
2022/05/12 03:24:00;;;;;;;;;2.33;2.33;;;;;20.21;46.26;101310.41;2086789;28;47552;-56
2022/05/12 03:25:01;;;;;;;;;3.33;3.33;;;;;20.19;46.44;101307.75;2088879;28;47491;-57
2022/05/12 03:26:02;;;;;;;;;1.33;1.00;;;;;20.19;46.19;101304.19;2089119;28;47992;-57
2022/05/12 03:27:02;;;;;;;;;3.33;2.00;;;;;20.18;46.48;101303.31;2086411;28;47915;-57
2022/05/12 03:28:03;;;;;;;;;1.00;1.00;;;;;20.18;45.86;101295.22;2089110;28;47109;-56
2022/05/12 03:29:04;;;;;;;;;2.00;1.00;;;;;20.17;46.54;101301.56;2088357;28;47532;-57
2022/05/12 03:30:09;;;;;;;;;3.00;3.00;;;;;20.17;46.37;101303.41;2083203;28;48376;-57
2022/05/12 03:31:10;;;;;;;;;2.75;2.00;;;;;20.15;46.41;101302.63;2087181;28;47772;-55
2022/05/12 03:32:12;;;;;;;;;1.33;1.33;;;;;20.12;46.31;101302.78;2087662;28;47721;-57
2022/05/12 03:33:12;;;;;;;;;4.50;3.75;;;;;20.10;46.49;101308.25;2087509;28;47330;-56
2022/05/12 03:34:13;;;;;;;;;2.00;1.00;;;;;20.09;46.19;101303.81;2089084;28;47837;-57
2022/05/12 03:35:13;;;;;;;;;2.00;1.00;;;;;20.08;46.88;101306.59;2086723;28;47513;-57
2022/05/12 03:36:15;;;;;;;;;3.67;3.33;;;;;20.08;46.53;101309.28;2090187;28;47931;-57
2022/05/12 03:37:17;;;;;;;;;1.25;1.25;;;;;20.06;46.72;101308.47;2089819;28;48388;-57
2022/05/12 03:38:19;;;;;;;;;2.00;1.25;;;;;20.06;46.41;101303.97;2087650;28;47623;-57
2022/05/12 03:39:21;;;;;;;;;3.00;2.00;;;;;20.04;46.77;101308.56;2089995;28;47607;-57
2022/05/12 03:40:22;;;;;;;;;2.50;2.25;;;;;20.03;46.94;101303.25;2089798;28;47613;-55
2022/05/12 03:41:22;;;;;;;;;2.67;2.00;;;;;20.03;46.56;101303.25;2086579;28;47531;-56
2022/05/12 03:42:22;;;;;;;;;2.67;2.67;;;;;20.02;46.71;101298.81;2089189;28;47901;-55
2022/05/12 03:44:55;;;;;;;;;3.25;2.25;;;;;19.98;46.59;101309.75;2086793;28;48009;-55
2022/05/12 03:45:55;;;;;;;;;1.25;0.00;;;;;19.95;46.67;101299.16;2086975;28;47175;-55
2022/05/12 03:46:55;;;;;;;;;1.33;1.33;;;;;19.95;46.54;101298.28;2089800;28;47278;-55
2022/05/12 03:47:57;;;;;;;;;1.00;1.00;;;;;19.94;46.39;101309.97;2087041;28;47397;-52
2022/05/12 03:48:59;;;;;;;;;0.75;0.75;;;;;19.92;46.30;101307.38;2089837;28;47566;-56
2022/05/12 03:50:21;;;;;;;;;1.75;1.75;;;;;19.91;46.50;101305.63;2088044;28;48208;-55
2022/05/12 03:51:21;;;;;;;;;2.75;2.75;;;;;19.88;46.18;101305.78;2089131;28;47594;-55
2022/05/12 03:52:23;;;;;;;;;2.67;1.67;;;;;19.88;46.80;101307.59;2091014;28;48026;-54
2022/05/12 03:53:26;;;;;;;;;1.00;1.00;;;;;19.86;46.79;101306.81;2087779;28;47611;-57
2022/05/12 03:54:27;;;;;;;;;1.75;1.75;;;;;19.84;46.74;101303.34;2089387;28;47959;-56
2022/05/12 03:55:27;;;;;;;;;2.00;2.00;;;;;19.84;46.61;101298.81;2091429;28;47666;-55
2022/05/12 03:56:28;;;;;;;;;1.00;1.00;;;;;19.81;46.81;101301.66;2088590;28;47641;-56
2022/05/12 03:57:28;;;;;;;;;2.67;2.00;;;;;19.81;47.17;101303.47;2091651;28;47677;-57
2022/05/12 03:58:29;;;;;;;;;2.00;2.00;;;;;19.79;46.77;101300.84;2091144;28;47537;-56
2022/05/12 03:59:29;;;;;;;;;4.00;4.00;;;;;19.80;46.71;101308.00;2089171;28;47595;-56
2022/05/12 04:00:31;;;;;;;;;4.33;3.00;;;;;19.79;47.00;101303.56;2088339;28;47606;-56
2022/05/12 04:01:33;;;;;;;;;2.00;2.00;;;;;19.79;46.88;101300.00;2088435;28;47886;-56
2022/05/12 04:02:33;;;;;;;;;3.00;2.25;;;;;19.78;47.41;101306.31;2089229;28;48241;-54
2022/05/12 04:03:34;;;;;;;;;1.67;1.67;;;;;19.77;47.04;101308.16;2090573;28;46746;-55
2022/05/12 04:04:35;;;;;;;;;2.33;1.33;;;;;19.78;46.84;101311.72;2087644;28;47712;-56
2022/05/12 04:05:35;;;;;;;;;1.67;1.67;;;;;19.77;47.18;101313.53;2091230;28;47742;-57
2022/05/12 04:06:36;;;;;;;;;2.00;2.00;;;;;19.77;47.31;101309.97;2090813;28;47989;-57
2022/05/12 04:07:41;;;;;;;;;1.00;0.33;;;;;19.75;47.25;101311.88;2088933;28;47658;-57
2022/05/12 04:08:41;;;;;;;;;0.25;0.25;;;;;19.75;46.96;101306.50;2091455;28;47594;-56
2022/05/12 04:09:42;;;;;;;;;5.67;4.33;;;;;19.74;46.96;101311.00;2090769;28;48032;-56
2022/05/12 04:10:42;;;;;;;;;0.67;0.67;;;;;19.73;47.18;101317.34;2087664;28;47736;-56
2022/05/12 04:11:43;;;;;;;;;4.33;2.67;;;;;19.72;47.46;101322.81;2090322;28;47311;-56
2022/05/12 04:12:43;;;;;;;;;1.00;1.00;;;;;19.69;47.35;101315.72;2088953;28;47472;-56
2022/05/12 04:13:44;;;;;;;;;2.00;1.00;;;;;19.65;47.02;101319.53;2090801;28;48057;-54
2022/05/12 04:14:44;;;;;;;;;2.00;2.00;;;;;19.63;47.64;101316.91;2090555;28;48105;-55
2022/05/12 04:15:46;;;;;;;;;2.67;2.00;;;;;19.62;47.41;101314.31;2087988;28;47408;-55
2022/05/12 04:16:46;;;;;;;;;0.50;0.50;;;;;19.61;47.33;101318.81;2081226;28;47238;-53
2022/05/12 04:17:59;;;;;;;;;2.00;2.00;;;;;19.60;47.62;101317.09;2079566;28;47324;-55
2022/05/12 04:18:59;;;;;;;;;0.75;0.75;;;;;19.58;47.58;101324.38;2080208;28;47688;-55
2022/05/12 04:20:12;;;;;;;;;1.00;1.00;;;;;19.57;47.17;101324.44;2090590;28;48203;-54
2022/05/12 04:21:12;;;;;;;;;2.00;1.50;;;;;19.56;47.40;101330.75;2092654;28;47590;-56
2022/05/12 04:22:13;;;;;;;;;3.00;1.33;;;;;19.53;47.67;101320.97;2096999;28;47597;-53
2022/05/12 04:23:13;;;;;;;;;2.00;2.00;;;;;19.52;47.45;101324.63;2091891;28;48053;-54
2022/05/12 04:24:14;;;;;;;;;2.67;2.67;;;;;19.50;47.86;101328.34;2091106;28;47625;-56
2022/05/12 04:25:14;;;;;;;;;3.00;1.00;;;;;19.49;47.76;101324.78;2087822;28;48032;-54
2022/05/12 04:26:14;;;;;;;;;2.67;2.33;;;;;19.48;47.52;101333.81;2092930;28;47687;-56
2022/05/12 04:27:16;;;;;;;;;1.00;1.00;;;;;19.48;47.72;101331.13;2088144;28;47389;-56
2022/05/12 04:28:16;;;;;;;;;2.00;2.00;;;;;19.46;48.31;101334.84;2090218;28;47567;-56
2022/05/12 04:29:17;;;;;;;;;1.00;1.00;;;;;19.43;47.96;101333.13;2087998;28;47547;-56
2022/05/12 04:30:19;;;;;;;;;1.67;1.67;;;;;19.42;48.34;101336.78;2088831;28;47662;-57
2022/05/12 04:31:20;;;;;;;;;3.00;2.25;;;;;19.41;48.10;101335.03;2090065;28;47318;-55
2022/05/12 04:32:20;;;;;;;;;4.33;3.00;;;;;19.41;48.08;101335.03;2090978;28;47563;-54
2022/05/12 04:35:58;;;;;;;;;4.00;3.75;;;;;19.44;48.29;101331.31;2079628;28;48028;-57
2022/05/12 04:36:59;;;;;;;;;3.00;2.00;;;;;19.45;47.83;101328.59;2087882;28;47469;-57
2022/05/12 04:37:59;;;;;;;;;2.00;2.00;;;;;19.45;47.90;101333.09;2088650;28;48091;-57
2022/05/12 04:39:00;;;;;;;;;2.00;2.00;;;;;19.44;47.99;101334.91;2096842;28;47612;-56
2022/05/12 04:40:09;;;;;;;;;2.33;2.33;;;;;19.45;48.35;101339.34;2091021;28;47393;-56
2022/05/12 04:41:10;;;;;;;;;4.75;3.25;;;;;19.45;48.08;101336.66;2080184;28;47531;-57
2022/05/12 04:42:10;;;;;;;;;3.00;2.00;;;;;19.46;48.20;101343.78;2080357;28;47899;-57
2022/05/12 04:43:10;;;;;;;;;4.00;3.67;;;;;19.45;48.21;101342.03;2083555;28;47474;-57
2022/05/12 04:44:11;;;;;;;;;2.67;2.67;;;;;19.44;48.17;101343.00;2081117;28;47857;-57
2022/05/12 04:45:12;;;;;;;;;2.67;2.67;;;;;19.43;48.02;101338.53;2086718;28;47434;-57
2022/05/12 04:46:13;;;;;;;;;3.00;3.00;;;;;19.41;48.23;101335.91;2087943;28;47544;-57
2022/05/12 04:47:13;;;;;;;;;4.00;3.00;;;;;19.41;47.92;101337.72;2088382;28;47316;-57
2022/05/12 04:48:14;;;;;;;;;3.33;1.33;;;;;19.42;48.39;101345.72;2087707;28;47785;-56
2022/05/12 04:49:15;;;;;;;;;2.00;1.67;;;;;19.40;47.87;101344.94;2088351;28;47198;-57
2022/05/12 04:50:25;;;;;;;;;2.25;2.25;;;;;19.42;48.39;101342.16;2088031;28;47515;-57